sensor_id;sensor_type;location;lat;lon;timestamp;P1;durP1;ratioP1;P2;durP2;ratioP2
24161;SDS011;12318;51.262;7.066;2022-12-10T00:01:08;120.22;;;56.80;;
24161;SDS011;12318;51.262;7.066;2022-12-10T00:03:40;110.75;;;56.50;;
24161;SDS011;12318;51.262;7.066;2022-12-10T00:06:09;117.55;;;56.67;;
24161;SDS011;12318;51.262;7.066;2022-12-10T00:08:36;119.00;;;57.95;;
24161;SDS011;12318;51.262;7.066;2022-12-10T00:11:03;111.82;;;56.20;;
24161;SDS011;12318;51.262;7.066;2022-12-10T00:13:34;108.20;;;54.70;;
24161;SDS011;12318;51.262;7.066;2022-12-10T00:16:01;94.50;;;50.42;;
24161;SDS011;12318;51.262;7.066;2022-12-10T00:18:34;112.23;;;54.53;;
24161;SDS011;12318;51.262;7.066;2022-12-10T00:21:05;128.25;;;58.80;;
24161;SDS011;12318;51.262;7.066;2022-12-10T00:23:35;139.10;;;60.15;;
24161;SDS011;12318;51.262;7.066;2022-12-10T00:26:12;90.70;;;49.38;;
24161;SDS011;12318;51.262;7.066;2022-12-10T00:28:40;121.32;;;56.13;;
24161;SDS011;12318;51.262;7.066;2022-12-10T00:31:09;116.72;;;55.80;;
24161;SDS011;12318;51.262;7.066;2022-12-10T00:33:44;110.18;;;55.80;;
24161;SDS011;12318;51.262;7.066;2022-12-10T00:36:12;140.77;;;59.45;;
24161;SDS011;12318;51.262;7.066;2022-12-10T00:38:40;148.95;;;63.72;;
24161;SDS011;12318;51.262;7.066;2022-12-10T00:41:07;135.10;;;60.40;;
24161;SDS011;12318;51.262;7.066;2022-12-10T00:43:36;109.35;;;55.22;;
24161;SDS011;12318;51.262;7.066;2022-12-10T00:46:02;124.25;;;59.05;;
24161;SDS011;12318;51.262;7.066;2022-12-10T00:48:28;149.57;;;61.72;;
24161;SDS011;12318;51.262;7.066;2022-12-10T00:50:56;147.32;;;63.15;;
24161;SDS011;12318;51.262;7.066;2022-12-10T00:53:36;139.25;;;60.28;;
24161;SDS011;12318;51.262;7.066;2022-12-10T00:56:03;128.38;;;60.53;;
24161;SDS011;12318;51.262;7.066;2022-12-10T00:58:33;143.27;;;60.97;;
24161;SDS011;12318;51.262;7.066;2022-12-10T01:01:20;104.82;;;47.72;;
24161;SDS011;12318;51.262;7.066;2022-12-10T01:03:52;130.00;;;59.20;;
24161;SDS011;12318;51.262;7.066;2022-12-10T01:06:26;124.28;;;58.80;;
24161;SDS011;12318;51.262;7.066;2022-12-10T01:08:58;105.07;;;52.70;;
24161;SDS011;12318;51.262;7.066;2022-12-10T01:11:28;120.85;;;57.53;;
24161;SDS011;12318;51.262;7.066;2022-12-10T01:13:56;93.32;;;48.72;;
24161;SDS011;12318;51.262;7.066;2022-12-10T01:16:25;102.72;;;52.92;;
24161;SDS011;12318;51.262;7.066;2022-12-10T01:18:54;126.10;;;57.67;;
24161;SDS011;12318;51.262;7.066;2022-12-10T01:21:25;120.38;;;50.83;;
24161;SDS011;12318;51.262;7.066;2022-12-10T01:23:52;158.25;;;63.72;;
24161;SDS011;12318;51.262;7.066;2022-12-10T01:26:20;165.38;;;65.93;;
24161;SDS011;12318;51.262;7.066;2022-12-10T01:28:52;161.43;;;63.65;;
24161;SDS011;12318;51.262;7.066;2022-12-10T01:31:26;146.55;;;62.80;;
24161;SDS011;12318;51.262;7.066;2022-12-10T01:33:54;156.90;;;63.35;;
24161;SDS011;12318;51.262;7.066;2022-12-10T01:36:23;160.88;;;63.45;;
24161;SDS011;12318;51.262;7.066;2022-12-10T01:38:58;156.73;;;63.38;;
24161;SDS011;12318;51.262;7.066;2022-12-10T01:41:25;128.88;;;60.60;;
24161;SDS011;12318;51.262;7.066;2022-12-10T01:44:02;132.35;;;59.25;;
24161;SDS011;12318;51.262;7.066;2022-12-10T01:46:48;108.47;;;53.75;;
24161;SDS011;12318;51.262;7.066;2022-12-10T01:49:24;136.93;;;61.83;;
24161;SDS011;12318;51.262;7.066;2022-12-10T01:51:52;111.50;;;54.88;;
24161;SDS011;12318;51.262;7.066;2022-12-10T01:54:23;124.47;;;58.00;;
24161;SDS011;12318;51.262;7.066;2022-12-10T01:57:09;127.93;;;57.80;;
24161;SDS011;12318;51.262;7.066;2022-12-10T01:59:39;130.70;;;60.53;;
24161;SDS011;12318;51.262;7.066;2022-12-10T02:02:30;134.13;;;59.17;;
24161;SDS011;12318;51.262;7.066;2022-12-10T02:08:17;108.25;;;52.38;;
24161;SDS011;12318;51.262;7.066;2022-12-10T02:11:05;92.05;;;48.00;;
24161;SDS011;12318;51.262;7.066;2022-12-10T02:13:54;89.25;;;46.20;;
24161;SDS011;12318;51.262;7.066;2022-12-10T02:16:33;115.53;;;55.15;;
24161;SDS011;12318;51.262;7.066;2022-12-10T02:19:15;124.13;;;59.40;;
24161;SDS011;12318;51.262;7.066;2022-12-10T02:22:14;106.63;;;52.42;;
24161;SDS011;12318;51.262;7.066;2022-12-10T02:24:42;99.65;;;51.58;;
24161;SDS011;12318;51.262;7.066;2022-12-10T02:27:15;122.88;;;55.65;;
24161;SDS011;12318;51.262;7.066;2022-12-10T02:29:44;122.20;;;56.60;;
24161;SDS011;12318;51.262;7.066;2022-12-10T02:32:26;126.63;;;56.47;;
24161;SDS011;12318;51.262;7.066;2022-12-10T02:35:06;128.27;;;57.00;;
24161;SDS011;12318;51.262;7.066;2022-12-10T02:37:51;132.13;;;58.67;;
24161;SDS011;12318;51.262;7.066;2022-12-10T02:40:25;144.57;;;61.13;;
24161;SDS011;12318;51.262;7.066;2022-12-10T02:42:56;118.55;;;55.55;;
24161;SDS011;12318;51.262;7.066;2022-12-10T02:45:23;105.20;;;52.92;;
24161;SDS011;12318;51.262;7.066;2022-12-10T02:47:54;114.43;;;55.40;;
24161;SDS011;12318;51.262;7.066;2022-12-10T02:50:23;103.60;;;53.58;;
24161;SDS011;12318;51.262;7.066;2022-12-10T02:52:51;125.57;;;58.53;;
24161;SDS011;12318;51.262;7.066;2022-12-10T02:55:18;132.35;;;59.03;;
24161;SDS011;12318;51.262;7.066;2022-12-10T02:57:50;123.65;;;57.58;;
24161;SDS011;12318;51.262;7.066;2022-12-10T03:00:30;125.75;;;57.17;;
24161;SDS011;12318;51.262;7.066;2022-12-10T03:08:47;131.20;;;58.58;;
24161;SDS011;12318;51.262;7.066;2022-12-10T03:11:38;96.55;;;50.40;;
24161;SDS011;12318;51.262;7.066;2022-12-10T03:16:41;103.00;;;49.95;;
24161;SDS011;12318;51.262;7.066;2022-12-10T03:19:13;81.25;;;45.15;;
24161;SDS011;12318;51.262;7.066;2022-12-10T03:21:48;82.18;;;44.67;;
24161;SDS011;12318;51.262;7.066;2022-12-10T03:24:16;95.85;;;48.90;;
24161;SDS011;12318;51.262;7.066;2022-12-10T03:26:43;76.90;;;44.78;;
24161;SDS011;12318;51.262;7.066;2022-12-10T03:29:18;105.72;;;51.95;;
24161;SDS011;12318;51.262;7.066;2022-12-10T03:32:01;111.60;;;54.90;;
24161;SDS011;12318;51.262;7.066;2022-12-10T03:34:28;110.70;;;53.30;;
24161;SDS011;12318;51.262;7.066;2022-12-10T03:36:57;95.45;;;50.55;;
24161;SDS011;12318;51.262;7.066;2022-12-10T03:39:24;88.45;;;48.78;;
24161;SDS011;12318;51.262;7.066;2022-12-10T03:41:51;86.15;;;48.08;;
24161;SDS011;12318;51.262;7.066;2022-12-10T03:47:02;105.65;;;52.40;;
24161;SDS011;12318;51.262;7.066;2022-12-10T03:49:32;110.68;;;54.17;;
24161;SDS011;12318;51.262;7.066;2022-12-10T03:52:03;87.07;;;47.47;;
24161;SDS011;12318;51.262;7.066;2022-12-10T03:54:32;119.43;;;53.80;;
24161;SDS011;12318;51.262;7.066;2022-12-10T03:57:03;135.85;;;57.13;;
24161;SDS011;12318;51.262;7.066;2022-12-10T03:59:31;127.93;;;55.08;;
24161;SDS011;12318;51.262;7.066;2022-12-10T04:01:59;87.47;;;47.53;;
24161;SDS011;12318;51.262;7.066;2022-12-10T04:04:29;112.53;;;53.65;;
24161;SDS011;12318;51.262;7.066;2022-12-10T04:06:55;112.18;;;52.58;;
24161;SDS011;12318;51.262;7.066;2022-12-10T04:09:23;106.75;;;52.83;;
24161;SDS011;12318;51.262;7.066;2022-12-10T04:11:54;133.17;;;57.57;;
24161;SDS011;12318;51.262;7.066;2022-12-10T04:14:27;87.93;;;48.33;;
24161;SDS011;12318;51.262;7.066;2022-12-10T04:17:13;87.22;;;46.47;;
24161;SDS011;12318;51.262;7.066;2022-12-10T04:19:39;115.25;;;52.67;;
24161;SDS011;12318;51.262;7.066;2022-12-10T04:22:10;122.68;;;54.33;;
24161;SDS011;12318;51.262;7.066;2022-12-10T04:24:57;114.07;;;54.40;;
24161;SDS011;12318;51.262;7.066;2022-12-10T04:27:41;143.20;;;56.53;;
24161;SDS011;12318;51.262;7.066;2022-12-10T04:30:08;119.30;;;54.85;;
24161;SDS011;12318;51.262;7.066;2022-12-10T04:32:35;109.63;;;51.50;;
24161;SDS011;12318;51.262;7.066;2022-12-10T04:35:02;122.53;;;54.30;;
24161;SDS011;12318;51.262;7.066;2022-12-10T04:37:30;123.13;;;55.65;;
24161;SDS011;12318;51.262;7.066;2022-12-10T04:39:56;123.60;;;55.72;;
24161;SDS011;12318;51.262;7.066;2022-12-10T04:42:22;98.70;;;50.05;;
24161;SDS011;12318;51.262;7.066;2022-12-10T04:44:48;121.45;;;54.92;;
24161;SDS011;12318;51.262;7.066;2022-12-10T04:47:14;131.57;;;53.92;;
24161;SDS011;12318;51.262;7.066;2022-12-10T04:49:46;94.22;;;49.15;;
24161;SDS011;12318;51.262;7.066;2022-12-10T04:52:13;125.07;;;56.38;;
24161;SDS011;12318;51.262;7.066;2022-12-10T04:55:00;93.60;;;41.63;;
24161;SDS011;12318;51.262;7.066;2022-12-10T04:57:26;120.75;;;54.63;;
24161;SDS011;12318;51.262;7.066;2022-12-10T04:59:54;119.18;;;54.42;;
24161;SDS011;12318;51.262;7.066;2022-12-10T05:02:20;121.80;;;55.92;;
24161;SDS011;12318;51.262;7.066;2022-12-10T05:04:49;141.18;;;56.75;;
24161;SDS011;12318;51.262;7.066;2022-12-10T05:07:15;128.90;;;58.75;;
24161;SDS011;12318;51.262;7.066;2022-12-10T05:09:43;123.53;;;56.17;;
24161;SDS011;12318;51.262;7.066;2022-12-10T05:12:12;87.68;;;48.35;;
24161;SDS011;12318;51.262;7.066;2022-12-10T05:18:00;124.80;;;57.47;;
24161;SDS011;12318;51.262;7.066;2022-12-10T05:20:28;124.25;;;56.63;;
24161;SDS011;12318;51.262;7.066;2022-12-10T05:22:54;146.93;;;60.50;;
24161;SDS011;12318;51.262;7.066;2022-12-10T05:25:45;139.90;;;61.28;;
24161;SDS011;12318;51.262;7.066;2022-12-10T05:28:30;120.57;;;57.72;;
24161;SDS011;12318;51.262;7.066;2022-12-10T05:30:57;121.93;;;56.50;;
24161;SDS011;12318;51.262;7.066;2022-12-10T05:33:23;117.43;;;55.05;;
24161;SDS011;12318;51.262;7.066;2022-12-10T05:36:07;120.43;;;55.30;;
24161;SDS011;12318;51.262;7.066;2022-12-10T05:38:34;89.28;;;46.95;;
24161;SDS011;12318;51.262;7.066;2022-12-10T05:41:10;140.77;;;58.50;;
24161;SDS011;12318;51.262;7.066;2022-12-10T05:43:42;127.90;;;57.97;;
24161;SDS011;12318;51.262;7.066;2022-12-10T05:49:05;120.82;;;54.95;;
24161;SDS011;12318;51.262;7.066;2022-12-10T05:54:03;117.68;;;54.72;;
24161;SDS011;12318;51.262;7.066;2022-12-10T05:56:35;85.22;;;48.03;;
24161;SDS011;12318;51.262;7.066;2022-12-10T05:59:02;123.18;;;55.38;;
24161;SDS011;12318;51.262;7.066;2022-12-10T06:01:32;117.25;;;54.75;;
24161;SDS011;12318;51.262;7.066;2022-12-10T06:04:03;127.00;;;56.45;;
24161;SDS011;12318;51.262;7.066;2022-12-10T06:06:51;83.70;;;45.83;;
24161;SDS011;12318;51.262;7.066;2022-12-10T06:09:17;85.78;;;45.92;;
24161;SDS011;12318;51.262;7.066;2022-12-10T06:11:46;142.00;;;56.33;;
24161;SDS011;12318;51.262;7.066;2022-12-10T06:17:21;99.70;;;49.75;;
24161;SDS011;12318;51.262;7.066;2022-12-10T06:19:54;102.32;;;50.05;;
24161;SDS011;12318;51.262;7.066;2022-12-10T06:22:23;116.20;;;54.25;;
24161;SDS011;12318;51.262;7.066;2022-12-10T06:24:49;163.57;;;60.15;;
24161;SDS011;12318;51.262;7.066;2022-12-10T06:27:17;93.80;;;48.85;;
24161;SDS011;12318;51.262;7.066;2022-12-10T06:29:43;123.05;;;56.45;;
24161;SDS011;12318;51.262;7.066;2022-12-10T06:32:09;84.82;;;45.88;;
24161;SDS011;12318;51.262;7.066;2022-12-10T06:34:38;125.13;;;57.28;;
24161;SDS011;12318;51.262;7.066;2022-12-10T06:37:03;143.15;;;60.22;;
24161;SDS011;12318;51.262;7.066;2022-12-10T06:39:29;98.22;;;49.47;;
24161;SDS011;12318;51.262;7.066;2022-12-10T06:42:01;100.90;;;49.72;;
24161;SDS011;12318;51.262;7.066;2022-12-10T06:44:40;88.50;;;45.50;;
24161;SDS011;12318;51.262;7.066;2022-12-10T06:47:06;101.75;;;51.17;;
24161;SDS011;12318;51.262;7.066;2022-12-10T06:49:32;109.05;;;53.20;;
24161;SDS011;12318;51.262;7.066;2022-12-10T06:52:00;106.63;;;52.97;;
24161;SDS011;12318;51.262;7.066;2022-12-10T06:54:26;102.90;;;49.83;;
24161;SDS011;12318;51.262;7.066;2022-12-10T06:56:59;92.32;;;48.97;;
24161;SDS011;12318;51.262;7.066;2022-12-10T06:59:44;113.85;;;53.40;;
24161;SDS011;12318;51.262;7.066;2022-12-10T07:02:13;130.77;;;55.05;;
24161;SDS011;12318;51.262;7.066;2022-12-10T07:04:39;144.55;;;59.15;;
24161;SDS011;12318;51.262;7.066;2022-12-10T07:07:07;147.90;;;58.30;;
24161;SDS011;12318;51.262;7.066;2022-12-10T07:09:38;124.88;;;54.88;;
24161;SDS011;12318;51.262;7.066;2022-12-10T07:12:04;716.28;;;65.47;;
24161;SDS011;12318;51.262;7.066;2022-12-10T07:14:32;428.85;;;57.50;;
24161;SDS011;12318;51.262;7.066;2022-12-10T07:17:02;242.65;;;55.40;;
24161;SDS011;12318;51.262;7.066;2022-12-10T07:19:35;159.38;;;52.25;;
24161;SDS011;12318;51.262;7.066;2022-12-10T07:24:27;432.88;;;66.22;;
24161;SDS011;12318;51.262;7.066;2022-12-10T07:26:55;622.72;;;67.40;;
24161;SDS011;12318;51.262;7.066;2022-12-10T07:29:23;260.23;;;58.67;;
24161;SDS011;12318;51.262;7.066;2022-12-10T07:31:51;469.60;;;67.95;;
24161;SDS011;12318;51.262;7.066;2022-12-10T07:34:20;431.58;;;55.72;;
24161;SDS011;12318;51.262;7.066;2022-12-10T07:36:46;513.88;;;69.45;;
24161;SDS011;12318;51.262;7.066;2022-12-10T07:39:13;443.13;;;69.97;;
24161;SDS011;12318;51.262;7.066;2022-12-10T07:41:51;134.88;;;55.47;;
24161;SDS011;12318;51.262;7.066;2022-12-10T07:44:20;222.07;;;57.25;;
24161;SDS011;12318;51.262;7.066;2022-12-10T07:46:53;269.48;;;68.22;;
24161;SDS011;12318;51.262;7.066;2022-12-10T07:49:29;330.65;;;65.93;;
24161;SDS011;12318;51.262;7.066;2022-12-10T07:51:55;314.13;;;66.93;;
24161;SDS011;12318;51.262;7.066;2022-12-10T07:54:23;260.77;;;71.22;;
24161;SDS011;12318;51.262;7.066;2022-12-10T07:56:52;216.85;;;69.28;;
24161;SDS011;12318;51.262;7.066;2022-12-10T07:59:18;276.95;;;70.10;;
24161;SDS011;12318;51.262;7.066;2022-12-10T08:01:54;223.48;;;63.70;;
24161;SDS011;12318;51.262;7.066;2022-12-10T08:04:22;166.90;;;62.75;;
24161;SDS011;12318;51.262;7.066;2022-12-10T08:06:48;170.30;;;65.07;;
24161;SDS011;12318;51.262;7.066;2022-12-10T08:09:14;221.55;;;64.13;;
24161;SDS011;12318;51.262;7.066;2022-12-10T08:11:45;235.80;;;72.10;;
24161;SDS011;12318;51.262;7.066;2022-12-10T08:14:11;771.58;;;93.22;;
24161;SDS011;12318;51.262;7.066;2022-12-10T08:16:37;270.30;;;74.95;;
24161;SDS011;12318;51.262;7.066;2022-12-10T08:22:02;223.00;;;71.07;;
24161;SDS011;12318;51.262;7.066;2022-12-10T08:24:28;274.30;;;75.43;;
24161;SDS011;12318;51.262;7.066;2022-12-10T08:26:56;252.13;;;68.57;;
24161;SDS011;12318;51.262;7.066;2022-12-10T08:29:22;256.08;;;70.35;;
24161;SDS011;12318;51.262;7.066;2022-12-10T08:31:48;298.27;;;75.13;;
24161;SDS011;12318;51.262;7.066;2022-12-10T08:34:15;243.20;;;70.57;;
24161;SDS011;12318;51.262;7.066;2022-12-10T08:36:45;125.82;;;50.40;;
24161;SDS011;12318;51.262;7.066;2022-12-10T08:39:11;248.65;;;76.43;;
24161;SDS011;12318;51.262;7.066;2022-12-10T08:41:40;231.73;;;77.10;;
24161;SDS011;12318;51.262;7.066;2022-12-10T08:44:09;142.25;;;63.78;;
24161;SDS011;12318;51.262;7.066;2022-12-10T08:46:39;170.80;;;66.15;;
24161;SDS011;12318;51.262;7.066;2022-12-10T08:49:08;218.70;;;73.40;;
24161;SDS011;12318;51.262;7.066;2022-12-10T08:51:33;199.80;;;73.63;;
24161;SDS011;12318;51.262;7.066;2022-12-10T08:53:59;209.38;;;69.97;;
24161;SDS011;12318;51.262;7.066;2022-12-10T08:56:25;196.30;;;71.28;;
24161;SDS011;12318;51.262;7.066;2022-12-10T08:58:54;195.52;;;72.45;;
24161;SDS011;12318;51.262;7.066;2022-12-10T09:01:19;153.38;;;67.13;;
24161;SDS011;12318;51.262;7.066;2022-12-10T09:03:47;188.07;;;70.82;;
24161;SDS011;12318;51.262;7.066;2022-12-10T09:06:15;143.93;;;63.03;;
24161;SDS011;12318;51.262;7.066;2022-12-10T09:08:43;155.52;;;63.65;;
24161;SDS011;12318;51.262;7.066;2022-12-10T09:11:13;173.45;;;68.35;;
24161;SDS011;12318;51.262;7.066;2022-12-10T09:13:44;151.05;;;65.18;;
24161;SDS011;12318;51.262;7.066;2022-12-10T09:16:10;165.07;;;67.00;;
24161;SDS011;12318;51.262;7.066;2022-12-10T09:18:40;144.90;;;63.38;;
24161;SDS011;12318;51.262;7.066;2022-12-10T09:21:07;146.63;;;61.63;;
24161;SDS011;12318;51.262;7.066;2022-12-10T09:23:34;170.50;;;68.43;;
24161;SDS011;12318;51.262;7.066;2022-12-10T09:26:10;139.60;;;61.92;;
24161;SDS011;12318;51.262;7.066;2022-12-10T09:28:39;150.50;;;64.05;;
24161;SDS011;12318;51.262;7.066;2022-12-10T09:31:09;154.85;;;66.53;;
24161;SDS011;12318;51.262;7.066;2022-12-10T09:33:36;149.82;;;63.55;;
24161;SDS011;12318;51.262;7.066;2022-12-10T09:36:05;144.88;;;62.35;;
24161;SDS011;12318;51.262;7.066;2022-12-10T09:38:38;103.45;;;54.70;;
24161;SDS011;12318;51.262;7.066;2022-12-10T09:44:10;143.88;;;60.28;;
24161;SDS011;12318;51.262;7.066;2022-12-10T09:46:58;125.13;;;58.72;;
24161;SDS011;12318;51.262;7.066;2022-12-10T09:52:26;139.43;;;57.42;;
24161;SDS011;12318;51.262;7.066;2022-12-10T09:55:01;119.63;;;56.25;;
24161;SDS011;12318;51.262;7.066;2022-12-10T10:02:42;114.15;;;54.33;;
24161;SDS011;12318;51.262;7.066;2022-12-10T10:05:13;107.70;;;54.25;;
24161;SDS011;12318;51.262;7.066;2022-12-10T10:07:51;117.55;;;55.05;;
24161;SDS011;12318;51.262;7.066;2022-12-10T10:10:40;108.80;;;53.63;;
24161;SDS011;12318;51.262;7.066;2022-12-10T10:15:33;103.00;;;51.97;;
24161;SDS011;12318;51.262;7.066;2022-12-10T10:18:50;109.22;;;52.72;;
24161;SDS011;12318;51.262;7.066;2022-12-10T10:21:07;109.55;;;52.40;;
24161;SDS011;12318;51.262;7.066;2022-12-10T10:23:57;98.97;;;49.83;;
24161;SDS011;12318;51.262;7.066;2022-12-10T10:26:24;111.40;;;52.75;;
24161;SDS011;12318;51.262;7.066;2022-12-10T10:28:55;99.93;;;51.28;;
24161;SDS011;12318;51.262;7.066;2022-12-10T10:31:27;104.63;;;50.83;;
24161;SDS011;12318;51.262;7.066;2022-12-10T10:34:00;88.55;;;47.47;;
24161;SDS011;12318;51.262;7.066;2022-12-10T10:36:35;101.38;;;50.97;;
24161;SDS011;12318;51.262;7.066;2022-12-10T10:41:37;115.45;;;56.13;;
24161;SDS011;12318;51.262;7.066;2022-12-10T10:44:15;98.47;;;50.45;;
24161;SDS011;12318;51.262;7.066;2022-12-10T10:46:44;94.43;;;49.78;;
24161;SDS011;12318;51.262;7.066;2022-12-10T10:49:13;106.93;;;54.63;;
24161;SDS011;12318;51.262;7.066;2022-12-10T10:51:45;103.25;;;53.28;;
24161;SDS011;12318;51.262;7.066;2022-12-10T10:57:12;112.35;;;53.67;;
24161;SDS011;12318;51.262;7.066;2022-12-10T11:00:40;122.03;;;54.50;;
24161;SDS011;12318;51.262;7.066;2022-12-10T11:02:51;112.63;;;54.47;;
24161;SDS011;12318;51.262;7.066;2022-12-10T11:05:20;117.15;;;57.38;;
24161;SDS011;12318;51.262;7.066;2022-12-10T11:07:47;125.00;;;58.15;;
24161;SDS011;12318;51.262;7.066;2022-12-10T11:10:17;131.88;;;58.08;;
24161;SDS011;12318;51.262;7.066;2022-12-10T11:12:53;136.18;;;59.65;;
24161;SDS011;12318;51.262;7.066;2022-12-10T11:17:59;118.13;;;58.00;;
24161;SDS011;12318;51.262;7.066;2022-12-10T11:20:26;115.53;;;57.78;;
24161;SDS011;12318;51.262;7.066;2022-12-10T11:23:00;121.22;;;59.97;;
24161;SDS011;12318;51.262;7.066;2022-12-10T11:50:23;106.75;;;52.25;;
24161;SDS011;12318;51.262;7.066;2022-12-10T11:55:31;107.80;;;49.67;;
24161;SDS011;12318;51.262;7.066;2022-12-10T11:58:33;96.65;;;48.97;;
24161;SDS011;12318;51.262;7.066;2022-12-10T12:01:06;111.57;;;51.15;;
24161;SDS011;12318;51.262;7.066;2022-12-10T12:09:20;93.32;;;46.38;;
24161;SDS011;12318;51.262;7.066;2022-12-10T12:12:03;104.22;;;50.58;;
24161;SDS011;12318;51.262;7.066;2022-12-10T12:14:36;104.20;;;50.30;;
24161;SDS011;12318;51.262;7.066;2022-12-10T12:19:55;100.15;;;49.20;;
24161;SDS011;12318;51.262;7.066;2022-12-10T12:22:47;98.13;;;47.97;;
24161;SDS011;12318;51.262;7.066;2022-12-10T12:25:26;105.85;;;49.40;;
24161;SDS011;12318;51.262;7.066;2022-12-10T12:30:44;97.70;;;49.15;;
24161;SDS011;12318;51.262;7.066;2022-12-10T12:36:04;98.15;;;48.17;;
24161;SDS011;12318;51.262;7.066;2022-12-10T12:46:43;92.85;;;43.83;;
24161;SDS011;12318;51.262;7.066;2022-12-10T12:49:22;90.88;;;46.63;;
24161;SDS011;12318;51.262;7.066;2022-12-10T12:54:55;87.45;;;44.70;;
24161;SDS011;12318;51.262;7.066;2022-12-10T13:05:23;83.50;;;42.67;;
24161;SDS011;12318;51.262;7.066;2022-12-10T13:10:44;79.28;;;42.58;;
24161;SDS011;12318;51.262;7.066;2022-12-10T13:13:31;78.93;;;40.40;;
24161;SDS011;12318;51.262;7.066;2022-12-10T13:29:47;82.80;;;41.60;;
24161;SDS011;12318;51.262;7.066;2022-12-10T13:40:27;80.70;;;42.03;;
24161;SDS011;12318;51.262;7.066;2022-12-10T13:49:02;80.47;;;41.13;;
24161;SDS011;12318;51.262;7.066;2022-12-10T13:59:48;79.72;;;40.10;;
24161;SDS011;12318;51.262;7.066;2022-12-10T14:08:31;88.68;;;43.10;;
24161;SDS011;12318;51.262;7.066;2022-12-10T14:10:59;79.18;;;40.70;;
24161;SDS011;12318;51.262;7.066;2022-12-10T14:13:36;79.30;;;40.88;;
24161;SDS011;12318;51.262;7.066;2022-12-10T14:16:06;89.63;;;44.22;;
24161;SDS011;12318;51.262;7.066;2022-12-10T14:18:36;65.90;;;32.28;;
24161;SDS011;12318;51.262;7.066;2022-12-10T14:21:05;84.97;;;43.50;;
24161;SDS011;12318;51.262;7.066;2022-12-10T14:23:32;69.78;;;38.47;;
24161;SDS011;12318;51.262;7.066;2022-12-10T14:26:04;72.93;;;38.50;;
24161;SDS011;12318;51.262;7.066;2022-12-10T14:28:39;77.07;;;39.08;;
24161;SDS011;12318;51.262;7.066;2022-12-10T14:31:10;79.13;;;40.05;;
24161;SDS011;12318;51.262;7.066;2022-12-10T14:33:50;77.82;;;39.72;;
24161;SDS011;12318;51.262;7.066;2022-12-10T14:36:28;77.88;;;40.90;;
24161;SDS011;12318;51.262;7.066;2022-12-10T14:38:56;85.53;;;42.40;;
24161;SDS011;12318;51.262;7.066;2022-12-10T14:41:23;82.72;;;41.67;;
24161;SDS011;12318;51.262;7.066;2022-12-10T14:43:51;82.65;;;41.80;;
24161;SDS011;12318;51.262;7.066;2022-12-10T14:46:19;95.13;;;45.10;;
24161;SDS011;12318;51.262;7.066;2022-12-10T14:48:58;88.15;;;46.58;;
24161;SDS011;12318;51.262;7.066;2022-12-10T14:51:25;105.63;;;48.80;;
24161;SDS011;12318;51.262;7.066;2022-12-10T14:53:58;98.40;;;48.33;;
24161;SDS011;12318;51.262;7.066;2022-12-10T14:56:32;106.57;;;49.80;;
24161;SDS011;12318;51.262;7.066;2022-12-10T14:59:14;99.68;;;50.03;;
24161;SDS011;12318;51.262;7.066;2022-12-10T15:01:47;105.25;;;50.78;;
24161;SDS011;12318;51.262;7.066;2022-12-10T15:04:19;110.65;;;52.47;;
24161;SDS011;12318;51.262;7.066;2022-12-10T15:06:45;96.55;;;49.05;;
24161;SDS011;12318;51.262;7.066;2022-12-10T15:09:16;108.10;;;51.00;;
24161;SDS011;12318;51.262;7.066;2022-12-10T15:11:51;102.75;;;50.53;;
24161;SDS011;12318;51.262;7.066;2022-12-10T15:14:19;93.40;;;48.75;;
24161;SDS011;12318;51.262;7.066;2022-12-10T15:16:45;112.15;;;52.13;;
24161;SDS011;12318;51.262;7.066;2022-12-10T15:25:02;118.90;;;56.17;;
24161;SDS011;12318;51.262;7.066;2022-12-10T15:27:51;109.35;;;54.70;;
24161;SDS011;12318;51.262;7.066;2022-12-10T15:30:22;115.80;;;53.30;;
24161;SDS011;12318;51.262;7.066;2022-12-10T15:32:50;119.97;;;53.33;;
24161;SDS011;12318;51.262;7.066;2022-12-10T15:35:17;94.35;;;49.72;;
24161;SDS011;12318;51.262;7.066;2022-12-10T15:37:43;125.70;;;56.13;;
24161;SDS011;12318;51.262;7.066;2022-12-10T15:40:26;83.78;;;42.45;;
24161;SDS011;12318;51.262;7.066;2022-12-10T15:42:56;107.38;;;54.78;;
24161;SDS011;12318;51.262;7.066;2022-12-10T15:45:42;129.20;;;57.72;;
24161;SDS011;12318;51.262;7.066;2022-12-10T15:48:09;115.82;;;56.63;;
24161;SDS011;12318;51.262;7.066;2022-12-10T15:50:38;114.82;;;55.90;;
24161;SDS011;12318;51.262;7.066;2022-12-10T15:53:13;129.68;;;59.88;;
24161;SDS011;12318;51.262;7.066;2022-12-10T15:55:41;129.32;;;60.42;;
24161;SDS011;12318;51.262;7.066;2022-12-10T15:58:11;120.32;;;58.92;;
24161;SDS011;12318;51.262;7.066;2022-12-10T16:00:38;120.60;;;59.67;;
24161;SDS011;12318;51.262;7.066;2022-12-10T16:03:12;127.35;;;60.10;;
24161;SDS011;12318;51.262;7.066;2022-12-10T16:05:41;126.20;;;56.78;;
24161;SDS011;12318;51.262;7.066;2022-12-10T16:10:37;123.38;;;57.45;;
24161;SDS011;12318;51.262;7.066;2022-12-10T16:13:04;113.55;;;55.53;;
24161;SDS011;12318;51.262;7.066;2022-12-10T16:15:33;118.07;;;53.35;;
24161;SDS011;12318;51.262;7.066;2022-12-10T16:18:01;97.88;;;49.33;;
24161;SDS011;12318;51.262;7.066;2022-12-10T16:20:30;115.95;;;50.72;;
24161;SDS011;12318;51.262;7.066;2022-12-10T16:22:57;121.10;;;54.00;;
24161;SDS011;12318;51.262;7.066;2022-12-10T16:25:25;133.27;;;56.20;;
24161;SDS011;12318;51.262;7.066;2022-12-10T16:27:56;124.55;;;56.75;;
24161;SDS011;12318;51.262;7.066;2022-12-10T16:33:18;134.68;;;58.90;;
24161;SDS011;12318;51.262;7.066;2022-12-10T16:35:45;136.00;;;58.92;;
24161;SDS011;12318;51.262;7.066;2022-12-10T16:38:14;132.02;;;58.17;;
24161;SDS011;12318;51.262;7.066;2022-12-10T16:40:41;134.15;;;59.63;;
24161;SDS011;12318;51.262;7.066;2022-12-10T16:43:16;120.68;;;57.20;;
24161;SDS011;12318;51.262;7.066;2022-12-10T16:45:43;138.65;;;62.10;;
24161;SDS011;12318;51.262;7.066;2022-12-10T16:48:09;134.45;;;57.40;;
24161;SDS011;12318;51.262;7.066;2022-12-10T16:50:35;123.70;;;55.03;;
24161;SDS011;12318;51.262;7.066;2022-12-10T16:53:02;128.10;;;56.85;;
24161;SDS011;12318;51.262;7.066;2022-12-10T16:55:39;112.47;;;54.58;;
24161;SDS011;12318;51.262;7.066;2022-12-10T16:58:05;113.30;;;54.22;;
24161;SDS011;12318;51.262;7.066;2022-12-10T17:00:35;111.57;;;55.70;;
24161;SDS011;12318;51.262;7.066;2022-12-10T17:03:01;124.38;;;58.25;;
24161;SDS011;12318;51.262;7.066;2022-12-10T17:05:41;115.85;;;56.55;;
24161;SDS011;12318;51.262;7.066;2022-12-10T17:08:08;122.13;;;57.80;;
24161;SDS011;12318;51.262;7.066;2022-12-10T17:10:35;130.00;;;57.10;;
24161;SDS011;12318;51.262;7.066;2022-12-10T17:13:20;106.22;;;54.15;;
24161;SDS011;12318;51.262;7.066;2022-12-10T17:15:47;139.80;;;64.15;;
24161;SDS011;12318;51.262;7.066;2022-12-10T17:18:15;125.63;;;58.58;;
24161;SDS011;12318;51.262;7.066;2022-12-10T17:20:42;119.43;;;56.88;;
24161;SDS011;12318;51.262;7.066;2022-12-10T17:23:09;125.97;;;55.63;;
24161;SDS011;12318;51.262;7.066;2022-12-10T17:25:35;109.40;;;51.92;;